Time;durP1;ratioP1;P1;durP2;ratioP2;P2;SDS_P1;SDS_P2;PMS_P1;PMS_P2;Temp;Humidity;BMP_temperature;BMP_pressure;BME280_temperature;BME280_humidity;BME280_pressure;Samples;Min_cycle;Max_cycle;Signal;HPM_P1;HPM_P2
2022/07/29 03:01:33;;;;;;;0.90;0.70;;;20.10;85.20;;;;;;5642831;23;20571;-77
2022/07/29 03:04:05;;;;;;;0.80;0.60;;;20.10;85.30;;;;;;4975826;28;20438;-77
2022/07/29 03:06:34;;;;;;;0.70;0.70;;;20.10;85.00;;;;;;4974812;28;20971;-77
2022/07/29 03:09:01;;;;;;;0.70;0.70;;;20.20;85.00;;;;;;4975064;28;20454;-77
2022/07/29 03:11:28;;;;;;;0.80;0.80;;;20.40;84.30;;;;;;4974862;28;20238;-77
2022/07/29 03:13:55;;;;;;;0.70;0.60;;;20.60;83.70;;;;;;4976645;28;20453;-77
2022/07/29 03:16:23;;;;;;;0.70;0.63;;;20.80;83.40;;;;;;4974509;28;20678;-74
2022/07/29 03:18:52;;;;;;;0.70;0.70;;;20.90;82.20;;;;;;4975130;28;20508;-74
2022/07/29 03:21:18;;;;;;;0.80;0.70;;;21.00;81.80;;;;;;4974843;28;20466;-75
2022/07/29 03:23:45;;;;;;;0.70;0.60;;;21.00;81.60;;;;;;4974965;28;20458;-74
2022/07/29 03:26:12;;;;;;;0.70;0.70;;;21.00;81.50;;;;;;4974921;28;20540;-74
2022/07/29 03:28:39;;;;;;;0.70;0.70;;;21.10;81.20;;;;;;4974733;28;20450;-74
2022/07/29 03:31:06;;;;;;;0.70;0.70;;;21.20;80.90;;;;;;4974660;28;20482;-74
2022/07/29 03:33:32;;;;;;;0.70;0.60;;;21.10;80.70;;;;;;4974807;28;20509;-74
2022/07/29 03:36:02;;;;;;;0.70;0.60;;;21.00;81.10;;;;;;4974679;28;20501;-74
2022/07/29 03:38:31;;;;;;;0.80;0.70;;;20.90;81.40;;;;;;4974965;28;20462;-74
2022/07/29 03:41:01;;;;;;;0.70;0.60;;;20.80;81.70;;;;;;4975326;28;20477;-74
2022/07/29 03:43:32;;;;;;;0.70;0.70;;;20.70;82.10;;;;;;4975282;28;20469;-75
2022/07/29 03:46:00;;;;;;;0.70;0.70;;;20.60;82.40;;;;;;4974992;28;20442;-75
2022/07/29 03:48:29;;;;;;;0.90;0.80;;;20.60;82.40;;;;;;4976889;28;20230;-74
2022/07/29 03:50:56;;;;;;;0.70;0.70;;;20.60;82.40;;;;;;4978249;28;20493;-74
2022/07/29 03:53:24;;;;;;;0.70;0.70;;;20.70;82.20;;;;;;4978163;28;20956;-74
2022/07/29 03:55:54;;;;;;;0.70;0.67;;;20.70;82.10;;;;;;4978669;28;20454;-75
2022/07/29 03:58:23;;;;;;;0.70;0.60;;;20.60;82.10;;;;;;4978603;28;20480;-75
2022/07/29 04:00:50;;;;;;;0.70;0.60;;;20.70;82.00;;;;;;4978175;28;20529;-74
2022/07/29 04:03:17;;;;;;;0.90;0.60;;;20.70;81.60;;;;;;4977898;28;20787;-74
2022/07/29 04:05:44;;;;;;;0.80;0.80;;;20.70;81.90;;;;;;4978200;28;20210;-74
2022/07/29 04:08:10;;;;;;;0.70;0.63;;;20.80;81.40;;;;;;4978275;28;20500;-74
2022/07/29 04:10:39;;;;;;;0.70;0.70;;;21.00;81.10;;;;;;4977894;28;20537;-74
2022/07/29 04:13:05;;;;;;;0.70;0.70;;;21.00;80.70;;;;;;4978142;28;20516;-75
2022/07/29 04:15:32;;;;;;;0.70;0.70;;;21.00;80.60;;;;;;4978034;28;20450;-75
2022/07/29 04:17:59;;;;;;;0.80;0.80;;;20.90;80.60;;;;;;4977938;28;20450;-75
2022/07/29 04:20:26;;;;;;;0.70;0.60;;;20.90;80.60;;;;;;4977918;28;20507;-74
2022/07/29 04:22:52;;;;;;;0.70;0.60;;;20.80;80.60;;;;;;4977802;28;20496;-75
2022/07/29 04:25:19;;;;;;;0.83;0.60;;;20.60;81.10;;;;;;4977857;28;20859;-74
2022/07/29 04:28:00;;;;;;;0.70;0.67;;;20.50;81.50;;;;;;4977426;28;20487;-74
2022/07/29 04:30:27;;;;;;;0.80;0.60;;;20.50;81.80;;;;;;4977321;28;20898;-74
2022/07/29 04:32:54;;;;;;;0.70;0.65;;;20.50;81.60;;;;;;4977641;28;20528;-74
2022/07/29 04:35:21;;;;;;;0.70;0.60;;;20.50;81.30;;;;;;4977290;28;20206;-74
2022/07/29 04:37:48;;;;;;;1.00;0.63;;;20.70;80.90;;;;;;4977552;28;20460;-74
2022/07/29 04:40:15;;;;;;;0.70;0.60;;;20.90;80.50;;;;;;4977607;28;20438;-75
2022/07/29 04:42:42;;;;;;;0.70;0.60;;;21.00;80.00;;;;;;4977350;28;20532;-75
2022/07/29 04:45:10;;;;;;;0.70;0.60;;;21.00;79.90;;;;;;4977299;28;20446;-74
2022/07/29 04:47:37;;;;;;;0.70;0.60;;;21.00;80.10;;;;;;4977350;28;20446;-74
2022/07/29 04:50:05;;;;;;;0.70;0.60;;;20.90;80.20;;;;;;4977337;28;20454;-74
2022/07/29 04:52:31;;;;;;;0.70;0.60;;;20.90;80.50;;;;;;4977275;28;20493;-74
2022/07/29 04:54:58;;;;;;;0.70;0.63;;;21.10;80.50;;;;;;4977286;28;20466;-75
2022/07/29 04:57:25;;;;;;;0.70;0.67;;;21.30;79.90;;;;;;4977024;28;20874;-75
2022/07/29 04:59:51;;;;;;;0.80;0.80;;;21.40;79.30;;;;;;4976829;28;20500;-75
2022/07/29 05:02:19;;;;;;;0.70;0.70;;;21.20;79.40;;;;;;4976859;28;20485;-75
2022/07/29 05:04:46;;;;;;;0.70;0.63;;;21.20;79.90;;;;;;4977044;28;20987;-74
2022/07/29 05:07:12;;;;;;;0.70;0.60;;;21.20;80.00;;;;;;4977336;28;20835;-73
2022/07/29 05:09:39;;;;;;;0.70;0.60;;;21.40;79.90;;;;;;4976680;28;20546;-73
2022/07/29 05:12:07;;;;;;;0.90;0.70;;;21.30;79.40;;;;;;4976975;28;20234;-74
2022/07/29 05:14:34;;;;;;;0.70;0.70;;;21.20;79.50;;;;;;4977248;28;20528;-74
2022/07/29 05:17:00;;;;;;;0.80;0.70;;;21.20;80.20;;;;;;4977078;28;20862;-75
2022/07/29 05:19:28;;;;;;;0.77;0.70;;;21.30;80.00;;;;;;4976602;28;20877;-75
2022/07/29 05:21:55;;;;;;;0.70;0.70;;;21.20;79.80;;;;;;4976678;28;20902;-75
2022/07/29 05:24:21;;;;;;;0.70;0.60;;;21.20;80.80;;;;;;4976777;28;20453;-75
2022/07/29 05:26:48;;;;;;;0.70;0.60;;;21.40;79.70;;;;;;4976786;28;20446;-75
2022/07/29 05:29:15;;;;;;;0.85;0.63;;;21.50;79.20;;;;;;4976883;28;20442;-75
2022/07/29 05:31:42;;;;;;;0.70;0.60;;;21.70;78.00;;;;;;4976476;28;20321;-75
2022/07/29 05:34:08;;;;;;;0.70;0.60;;;21.50;78.50;;;;;;4976707;28;20450;-75
2022/07/29 05:36:36;;;;;;;0.80;0.60;;;21.40;79.70;;;;;;4976757;28;20209;-74
2022/07/29 05:39:04;;;;;;;0.70;0.60;;;21.40;79.80;;;;;;4976819;28;20450;-75
2022/07/29 05:41:32;;;;;;;0.70;0.60;;;21.50;79.60;;;;;;4977060;28;20513;-75
2022/07/29 05:43:59;;;;;;;0.70;0.60;;;21.40;79.50;;;;;;4976924;28;20449;-74
2022/07/29 05:46:26;;;;;;;0.70;0.60;;;21.40;80.00;;;;;;4976951;28;20454;-74
2022/07/29 05:48:52;;;;;;;0.70;0.60;;;21.50;79.50;;;;;;4976341;28;20455;-74
2022/07/29 05:51:19;;;;;;;1.17;0.80;;;21.70;78.70;;;;;;4976229;28;20521;-75
2022/07/29 05:53:47;;;;;;;0.70;0.60;;;21.70;78.70;;;;;;4976500;28;20287;-75
2022/07/29 05:56:14;;;;;;;0.70;0.60;;;21.60;79.50;;;;;;4976614;28;20465;-75
2022/07/29 05:58:40;;;;;;;1.10;0.70;;;21.60;79.20;;;;;;4976697;28;20449;-75
2022/07/29 06:01:07;;;;;;;0.70;0.60;;;21.80;79.50;;;;;;4976048;28;20486;-75
2022/07/29 06:03:34;;;;;;;0.80;0.70;;;21.80;78.90;;;;;;4976287;28;20438;-74
2022/07/29 06:06:01;;;;;;;0.70;0.70;;;22.10;78.80;;;;;;4976180;28;20450;-74
2022/07/29 06:08:27;;;;;;;0.80;0.73;;;22.40;79.50;;;;;;4975937;28;20817;-74
2022/07/29 06:10:55;;;;;;;0.70;0.60;;;22.70;77.90;;;;;;4974837;28;20544;-75
2022/07/29 06:13:22;;;;;;;0.80;0.70;;;22.60;76.60;;;;;;4976250;28;20500;-75
2022/07/29 06:15:49;;;;;;;0.70;0.70;;;22.30;77.90;;;;;;4976025;28;20450;-75
2022/07/29 06:18:15;;;;;;;0.70;0.60;;;22.40;78.30;;;;;;4975959;28;20831;-74
2022/07/29 06:20:42;;;;;;;0.70;0.70;;;22.80;77.60;;;;;;4975540;28;20857;-75
2022/07/29 06:23:09;;;;;;;0.70;0.60;;;23.10;76.60;;;;;;4975956;28;20446;-75
2022/07/29 06:25:36;;;;;;;0.70;0.60;;;23.10;77.10;;;;;;4975977;28;20488;-75
2022/07/29 06:28:04;;;;;;;0.70;0.60;;;22.80;76.50;;;;;;4975691;28;20457;-74
2022/07/29 06:30:31;;;;;;;0.70;0.70;;;22.50;77.40;;;;;;4975726;28;20454;-74
2022/07/29 06:32:58;;;;;;;0.70;0.63;;;22.20;78.30;;;;;;4975662;28;20457;-74
2022/07/29 06:35:25;;;;;;;0.70;0.60;;;22.20;79.10;;;;;;4975436;28;20449;-74
2022/07/29 06:37:51;;;;;;;0.70;0.60;;;22.30;78.60;;;;;;4975458;28;20445;-75
2022/07/29 06:43:04;;;;;;;0.80;0.80;;;22.40;78.00;;;;;;4975720;28;20257;-74
2022/07/29 06:45:31;;;;;;;0.70;0.63;;;22.40;78.20;;;;;;4975684;28;20453;-74
2022/07/29 06:47:57;;;;;;;0.70;0.70;;;22.20;78.50;;;;;;4975569;28;20500;-74
2022/07/29 06:50:24;;;;;;;0.70;0.60;;;22.10;79.00;;;;;;4975224;28;20453;-74
2022/07/29 06:52:50;;;;;;;0.70;0.60;;;22.40;80.00;;;;;;4975400;28;20202;-74
2022/07/29 06:55:19;;;;;;;0.80;0.60;;;22.60;78.20;;;;;;4975200;28;20214;-74
2022/07/29 06:57:46;;;;;;;0.70;0.60;;;22.70;78.20;;;;;;4975266;28;20537;-75
2022/07/29 07:00:15;;;;;;;0.70;0.60;;;22.80;77.60;;;;;;4974710;28;21033;-75
2022/07/29 07:02:41;;;;;;;0.70;0.60;;;22.70;77.90;;;;;;4974617;28;20478;-74
2022/07/29 07:05:08;;;;;;;2.50;0.60;;;22.80;78.20;;;;;;4974972;28;20450;-74
2022/07/29 07:07:35;;;;;;;0.90;0.67;;;23.10;78.10;;;;;;4974840;28;20454;-75
2022/07/29 07:10:02;;;;;;;0.70;0.60;;;23.20;77.10;;;;;;4974995;28;20449;-75
2022/07/29 07:12:28;;;;;;;1.07;0.80;;;23.50;77.00;;;;;;4974745;28;20517;-74
2022/07/29 07:14:55;;;;;;;0.70;0.63;;;23.80;75.90;;;;;;4975465;28;20450;-74
2022/07/29 07:17:24;;;;;;;0.70;0.60;;;23.90;75.10;;;;;;4974537;28;20457;-74
2022/07/29 07:19:50;;;;;;;0.70;0.60;;;24.10;75.50;;;;;;4974809;28;20449;-74
2022/07/29 07:22:17;;;;;;;0.70;0.60;;;23.90;75.10;;;;;;4974504;28;20644;-74
2022/07/29 07:24:43;;;;;;;0.70;0.70;;;23.70;75.50;;;;;;4974743;28;20457;-74
2022/07/29 07:27:10;;;;;;;0.70;0.70;;;23.70;75.70;;;;;;4974729;28;20446;-74
2022/07/29 07:29:40;;;;;;;0.70;0.60;;;24.00;75.70;;;;;;4974610;28;20450;-74
2022/07/29 07:32:07;;;;;;;0.80;0.70;;;24.30;76.20;;;;;;4974591;28;20496;-75
2022/07/29 07:34:37;;;;;;;0.80;0.80;;;24.60;74.60;;;;;;4974601;28;20238;-74
2022/07/29 07:37:04;;;;;;;0.80;0.70;;;24.80;73.70;;;;;;4974936;28;20446;-75
2022/07/29 07:39:30;;;;;;;0.70;0.60;;;24.70;72.80;;;;;;4980066;28;20512;-75
2022/07/29 07:41:57;;;;;;;0.70;0.60;;;24.60;73.40;;;;;;4976903;28;20524;-75
2022/07/29 07:44:24;;;;;;;0.70;0.70;;;24.90;74.50;;;;;;4976606;28;20454;-74
2022/07/29 07:46:50;;;;;;;0.80;0.70;;;25.20;73.60;;;;;;4976515;28;20458;-75
2022/07/29 07:49:17;;;;;;;0.70;0.70;;;25.40;71.70;;;;;;4978256;28;20461;-74
2022/07/29 07:51:45;;;;;;;0.70;0.60;;;25.70;70.50;;;;;;4978067;28;20485;-74
2022/07/29 07:54:12;;;;;;;0.87;0.80;;;25.70;70.70;;;;;;4981470;28;20544;-75
2022/07/29 07:56:39;;;;;;;0.80;0.80;;;25.70;71.00;;;;;;4984456;28;20446;-76
2022/07/29 07:59:06;;;;;;;0.70;0.70;;;25.80;72.00;;;;;;4979720;28;20434;-74
2022/07/29 08:01:33;;;;;;;0.70;0.70;;;25.70;71.90;;;;;;4985469;28;20254;-75
2022/07/29 08:03:59;;;;;;;0.70;0.67;;;25.70;71.80;;;;;;4985386;28;20472;-74
2022/07/29 08:06:26;;;;;;;0.70;0.70;;;25.60;71.70;;;;;;4987255;28;20481;-74
2022/07/29 08:08:54;;;;;;;0.80;0.80;;;25.70;71.20;;;;;;4987872;28;20446;-74
2022/07/29 08:11:21;;;;;;;0.70;0.60;;;25.90;69.70;;;;;;4986645;28;20493;-74
2022/07/29 08:13:48;;;;;;;0.70;0.60;;;26.30;70.00;;;;;;4985930;28;20509;-74
2022/07/29 08:16:15;;;;;;;0.80;0.80;;;26.30;69.40;;;;;;4986385;28;20545;-74
2022/07/29 08:18:43;;;;;;;0.70;0.70;;;26.30;68.90;;;;;;4986996;28;20226;-74
2022/07/29 08:21:10;;;;;;;0.70;0.67;;;26.20;69.50;;;;;;4990223;28;20512;-74
2022/07/29 08:23:39;;;;;;;0.70;0.70;;;26.10;68.40;;;;;;4993584;28;20457;-75
2022/07/29 08:26:10;;;;;;;0.90;0.90;;;26.20;70.40;;;;;;4993498;28;20501;-74
2022/07/29 08:28:37;;;;;;;0.80;0.80;;;26.50;68.40;;;;;;4994542;28;20450;-74
2022/07/29 08:31:04;;;;;;;0.70;0.63;;;26.30;69.80;;;;;;4992623;28;20469;-75
2022/07/29 08:33:30;;;;;;;1.30;1.00;;;26.20;69.60;;;;;;4993809;28;20434;-74
2022/07/29 08:35:57;;;;;;;0.90;0.73;;;26.20;70.40;;;;;;4988542;28;20441;-76
2022/07/29 08:38:25;;;;;;;0.80;0.70;;;26.30;70.00;;;;;;4999351;28;20430;-75
2022/07/29 08:40:52;;;;;;;0.80;0.80;;;26.50;69.70;;;;;;4998667;28;20250;-76
2022/07/29 08:43:20;;;;;;;0.70;0.70;;;26.40;70.70;;;;;;4997113;28;20442;-75
2022/07/29 08:45:49;;;;;;;0.77;0.70;;;26.40;68.80;;;;;;4999208;28;20457;-75
2022/07/29 08:48:18;;;;;;;0.80;0.63;;;26.30;69.30;;;;;;4997992;28;20430;-75
2022/07/29 08:50:46;;;;;;;0.90;0.70;;;26.40;68.80;;;;;;4999059;28;20528;-75
2022/07/29 08:53:14;;;;;;;0.70;0.70;;;26.40;69.10;;;;;;4998987;28;20485;-76
2022/07/29 08:55:44;;;;;;;0.70;0.70;;;26.70;69.00;;;;;;4997574;28;20446;-75
2022/07/29 08:58:12;;;;;;;0.90;0.80;;;26.80;68.10;;;;;;4998304;28;20454;-76
2022/07/29 09:00:43;;;;;;;0.70;0.63;;;26.80;68.10;;;;;;4986008;28;20454;-76
2022/07/29 09:03:13;;;;;;;0.70;0.60;;;26.70;68.10;;;;;;4981198;28;20438;-77
2022/07/29 09:05:42;;;;;;;1.10;0.83;;;26.70;69.70;;;;;;4981779;28;20489;-76
2022/07/29 09:08:10;;;;;;;0.70;0.60;;;27.00;66.60;;;;;;4980948;28;20949;-76
2022/07/29 09:10:37;;;;;;;0.70;0.70;;;27.30;66.60;;;;;;4979779;28;20879;-76
2022/07/29 09:13:04;;;;;;;0.70;0.70;;;27.30;66.30;;;;;;4980998;28;20541;-76
2022/07/29 09:15:31;;;;;;;0.70;0.70;;;27.60;63.70;;;;;;4983499;28;20466;-76
2022/07/29 09:18:00;;;;;;;0.70;0.70;;;27.90;63.30;;;;;;4982223;28;20449;-76
2022/07/29 09:21:57;;;;;;;0.80;0.73;;;28.00;62.60;;;;;;4980778;28;20461;-76
2022/07/29 09:23:14;;;;;;;0.80;0.70;;;27.90;62.40;;;;;;4981503;28;20442;-77
2022/07/29 09:25:42;;;;;;;0.70;0.70;;;27.90;62.90;;;;;;4982612;28;20483;-76
2022/07/29 09:28:09;;;;;;;1.00;0.70;;;28.20;61.90;;;;;;4981634;28;20458;-76
2022/07/29 09:30:36;;;;;;;0.90;0.70;;;28.50;62.40;;;;;;4980509;28;20453;-76
2022/07/29 09:33:04;;;;;;;1.00;0.80;;;28.40;60.70;;;;;;4980466;28;20541;-76
2022/07/29 09:35:31;;;;;;;0.80;0.73;;;28.10;61.40;;;;;;4979376;28;20461;-76
2022/07/29 09:37:58;;;;;;;0.90;0.70;;;27.90;61.20;;;;;;4980154;28;20449;-76
2022/07/29 09:40:26;;;;;;;0.90;0.70;;;28.00;61.70;;;;;;4980086;28;20458;-76
2022/07/29 09:42:55;;;;;;;0.70;0.70;;;27.70;60.10;;;;;;4980545;28;20466;-76
2022/07/29 09:45:30;;;;;;;0.83;0.83;;;27.80;61.30;;;;;;4978718;28;20456;-76
2022/07/29 09:48:00;;;;;;;0.80;0.70;;;28.00;61.50;;;;;;4977744;28;20481;-76
2022/07/29 09:50:38;;;;;;;0.77;0.70;;;28.20;60.70;;;;;;4977810;28;20456;-76
2022/07/29 09:53:05;;;;;;;0.80;0.77;;;28.20;59.30;;;;;;4978726;28;20219;-76
2022/07/29 09:55:31;;;;;;;0.80;0.70;;;28.00;60.10;;;;;;4980051;28;20454;-76
2022/07/29 09:58:17;;;;;;;0.70;0.70;;;28.10;60.30;;;;;;4982722;28;20553;-77
2022/07/29 10:00:44;;;;;;;0.80;0.70;;;28.50;60.70;;;;;;4979640;28;20521;-77
2022/07/29 10:03:11;;;;;;;0.70;0.60;;;28.30;59.20;;;;;;4979073;28;20454;-76
2022/07/29 10:05:40;;;;;;;0.70;0.70;;;28.10;59.60;;;;;;4978409;28;20957;-77
2022/07/29 10:08:07;;;;;;;0.80;0.70;;;27.90;58.90;;;;;;4980445;28;20808;-77
2022/07/29 10:10:35;;;;;;;0.70;0.60;;;28.10;59.20;;;;;;4980530;28;20450;-76
2022/07/29 10:13:04;;;;;;;0.70;0.70;;;28.10;60.00;;;;;;4979764;28;20493;-76
2022/07/29 10:15:32;;;;;;;2.07;0.90;;;28.20;61.70;;;;;;4980208;28;20450;-76
2022/07/29 10:18:00;;;;;;;0.70;0.70;;;28.50;59.00;;;;;;4978979;28;20525;-77
2022/07/29 10:20:28;;;;;;;0.70;0.70;;;28.70;58.70;;;;;;4980307;28;20446;-76
2022/07/29 10:22:56;;;;;;;0.80;0.70;;;28.80;57.20;;;;;;4979169;28;20504;-76
2022/07/29 10:25:24;;;;;;;1.00;0.90;;;28.80;56.90;;;;;;4981439;28;20450;-76
2022/07/29 10:27:51;;;;;;;2.50;0.73;;;28.70;56.30;;;;;;4975927;28;20528;-74
2022/07/29 10:30:20;;;;;;;0.80;0.70;;;28.60;56.70;;;;;;4975225;28;20969;-73
2022/07/29 10:33:09;;;;;;;0.70;0.67;;;28.80;55.20;;;;;;4975140;28;20486;-73
2022/07/29 10:35:49;;;;;;;1.37;0.87;;;28.80;55.70;;;;;;4975276;28;20493;-74
2022/07/29 10:38:34;;;;;;;0.80;0.80;;;28.90;55.10;;;;;;4975247;28;20441;-73
2022/07/29 10:41:29;;;;;;;0.80;0.80;;;29.20;55.20;;;;;;4975107;28;20234;-74
2022/07/29 10:44:00;;;;;;;0.70;0.70;;;29.20;54.80;;;;;;4975203;28;20209;-74
2022/07/29 10:46:27;;;;;;;0.80;0.70;;;29.30;55.20;;;;;;4975148;28;20435;-75
2022/07/29 10:49:11;;;;;;;1.33;0.70;;;29.30;54.40;;;;;;4975104;28;20822;-74
2022/07/29 10:52:09;;;;;;;0.70;0.70;;;29.20;55.70;;;;;;4974683;28;21001;-74
2022/07/29 10:54:49;;;;;;;0.80;0.80;;;29.10;55.70;;;;;;4915407;29;20843;-74
2022/07/29 10:57:21;;;;;;;1.07;0.70;;;28.80;56.60;;;;;;4966634;28;20465;-74
2022/07/29 10:59:49;;;;;;;0.70;0.60;;;28.40;56.90;;;;;;4975037;28;20434;-74
2022/07/29 11:02:43;;;;;;;0.90;0.80;;;27.80;58.80;;;;;;4974772;28;20538;-76
2022/07/29 11:05:11;;;;;;;1.30;0.77;;;27.10;61.00;;;;;;4976592;28;20508;-76
2022/07/29 11:07:40;;;;;;;1.23;1.13;;;26.80;64.00;;;;;;4976029;28;20457;-75
2022/07/29 11:10:24;;;;;;;0.80;0.73;;;26.60;65.20;;;;;;4976407;28;20525;-76
2022/07/29 11:12:52;;;;;;;0.70;0.70;;;26.30;64.90;;;;;;4975052;28;20524;-71
2022/07/29 11:15:20;;;;;;;1.30;0.97;;;26.10;65.60;;;;;;4975414;28;20454;-76
2022/07/29 11:18:07;;;;;;;1.00;0.80;;;25.90;66.50;;;;;;4975172;28;20450;-76
2022/07/29 11:20:39;;;;;;;0.80;0.70;;;25.70;68.70;;;;;;4974831;28;21004;-76
2022/07/29 11:23:20;;;;;;;0.80;0.80;;;25.40;69.70;;;;;;4975552;28;20426;-76
2022/07/29 11:26:15;;;;;;;0.90;0.90;;;25.10;70.30;;;;;;4975054;28;20450;-76
2022/07/29 11:28:53;;;;;;;1.23;0.80;;;25.00;69.90;;;;;;4974340;28;20965;-76
2022/07/29 11:31:33;;;;;;;0.80;0.70;;;24.80;73.40;;;;;;4976474;28;20484;-74
2022/07/29 11:34:20;;;;;;;0.80;0.70;;;24.80;72.10;;;;;;4976567;28;20569;-75
2022/07/29 11:37:22;;;;;;;0.80;0.80;;;24.70;71.50;;;;;;4975856;28;20902;-76
2022/07/29 11:40:13;;;;;;;0.80;0.70;;;24.60;71.80;;;;;;4975736;28;20449;-76
2022/07/29 11:42:44;;;;;;;0.70;0.67;;;24.50;71.80;;;;;;4982823;28;20985;-77
2022/07/29 11:45:13;;;;;;;1.00;0.90;;;24.50;73.20;;;;;;4985344;28;20442;-76
2022/07/29 11:47:41;;;;;;;0.80;0.73;;;24.40;74.90;;;;;;4982949;28;20468;-75
2022/07/29 11:50:10;;;;;;;0.73;0.70;;;24.10;76.00;;;;;;4979101;28;20450;-76
2022/07/29 11:52:42;;;;;;;0.90;0.70;;;24.00;75.50;;;;;;4978517;28;20569;-76
2022/07/29 11:55:12;;;;;;;0.77;0.77;;;23.70;76.70;;;;;;4978073;28;20442;-77
2022/07/29 11:57:48;;;;;;;0.80;0.70;;;23.50;77.50;;;;;;4976940;28;20489;-76
2022/07/29 12:00:23;;;;;;;0.90;0.90;;;23.30;77.70;;;;;;4974336;28;20876;-76
2022/07/29 12:02:50;;;;;;;0.93;0.80;;;23.00;78.60;;;;;;4973691;28;20465;-76
2022/07/29 12:05:18;;;;;;;1.00;0.90;;;23.10;78.10;;;;;;4974276;28;20533;-76
2022/07/29 12:07:44;;;;;;;0.70;0.60;;;23.20;78.80;;;;;;4974301;28;20457;-76
2022/07/29 12:10:11;;;;;;;0.90;0.80;;;23.30;79.30;;;;;;4977062;28;20802;-76
2022/07/29 12:12:39;;;;;;;0.80;0.80;;;23.40;78.40;;;;;;4977509;28;20991;-76
2022/07/29 12:15:15;;;;;;;0.90;0.70;;;23.20;75.70;;;;;;4978042;28;20257;-76
2022/07/29 12:17:41;;;;;;;0.80;0.80;;;22.90;76.50;;;;;;4977909;28;20452;-76
2022/07/29 12:20:08;;;;;;;0.70;0.70;;;22.60;78.10;;;;;;4977524;28;20916;-75
2022/07/29 12:22:39;;;;;;;1.00;0.82;;;22.80;78.50;;;;;;4977727;28;20472;-76
2022/07/29 12:25:07;;;;;;;0.80;0.80;;;23.00;78.00;;;;;;4977748;28;20579;-76
2022/07/29 12:27:34;;;;;;;0.80;0.80;;;23.20;78.50;;;;;;4977693;28;20453;-76
2022/07/29 12:30:02;;;;;;;0.80;0.70;;;23.40;79.10;;;;;;4977627;28;20454;-76
2022/07/29 12:32:35;;;;;;;0.80;0.80;;;23.70;79.20;;;;;;4977391;28;20609;-76
2022/07/29 12:35:05;;;;;;;1.00;0.77;;;23.90;76.70;;;;;;4977547;28;20298;-76
2022/07/29 12:37:33;;;;;;;0.80;0.80;;;24.20;77.30;;;;;;4977343;28;20492;-76
2022/07/29 12:40:00;;;;;;;0.70;0.70;;;24.30;76.80;;;;;;4977513;28;20449;-76
2022/07/29 12:42:27;;;;;;;0.80;0.80;;;24.20;77.00;;;;;;4977125;28;20993;-77
2022/07/29 12:44:53;;;;;;;1.47;0.70;;;23.90;75.50;;;;;;4977462;28;20215;-76
2022/07/29 12:47:21;;;;;;;0.73;0.73;;;23.80;77.50;;;;;;4977084;28;20449;-76
2022/07/29 12:49:50;;;;;;;0.83;0.80;;;23.90;76.30;;;;;;4977363;28;20449;-75
2022/07/29 12:52:28;;;;;;;0.80;0.80;;;23.90;75.30;;;;;;4977293;28;20474;-76
2022/07/29 12:54:55;;;;;;;0.80;0.70;;;24.00;75.50;;;;;;4977243;28;20482;-76
2022/07/29 12:57:21;;;;;;;0.70;0.60;;;24.20;75.20;;;;;;4976880;28;20809;-76
2022/07/29 13:00:08;;;;;;;0.70;0.70;;;24.30;75.70;;;;;;4976973;28;20946;-76
2022/07/29 13:02:35;;;;;;;0.70;0.60;;;24.30;75.40;;;;;;4976760;28;20478;-76
2022/07/29 13:05:06;;;;;;;0.80;0.80;;;24.40;75.10;;;;;;4976976;28;20520;-76
2022/07/29 13:07:36;;;;;;;0.80;0.70;;;24.40;75.00;;;;;;4976920;28;20457;-76
2022/07/29 13:10:14;;;;;;;0.80;0.80;;;24.20;77.00;;;;;;4977393;28;20548;-78
2022/07/29 13:13:05;;;;;;;0.70;0.70;;;24.20;77.00;;;;;;4978798;28;20273;-77
2022/07/29 13:15:32;;;;;;;0.80;0.70;;;24.00;76.30;;;;;;4979396;28;20853;-77
2022/07/29 13:17:59;;;;;;;0.70;0.70;;;23.60;76.50;;;;;;4979955;28;20969;-76
2022/07/29 13:20:30;;;;;;;1.00;0.90;;;23.20;77.10;;;;;;4981185;28;20214;-76
2022/07/29 13:22:57;;;;;;;0.70;0.70;;;23.00;79.60;;;;;;4980824;28;20458;-77
2022/07/29 13:25:26;;;;;;;0.80;0.80;;;22.90;80.20;;;;;;4981411;28;20477;-77
2022/07/29 13:27:54;;;;;;;0.80;0.80;;;22.70;81.20;;;;;;4981045;28;20257;-77
2022/07/29 13:30:21;;;;;;;0.90;0.90;;;22.60;81.10;;;;;;4980681;28;20454;-77
2022/07/29 13:32:48;;;;;;;0.70;0.70;;;22.70;81.80;;;;;;4979908;28;20574;-77
2022/07/29 13:35:16;;;;;;;0.93;0.93;;;22.90;81.60;;;;;;4979937;28;20446;-77
2022/07/29 13:37:44;;;;;;;0.80;0.70;;;23.10;81.20;;;;;;4981867;28;20457;-77
2022/07/29 13:40:12;;;;;;;0.80;0.80;;;23.20;80.20;;;;;;4981613;28;20809;-77
2022/07/29 13:42:39;;;;;;;0.70;0.70;;;23.30;79.80;;;;;;4980783;28;20470;-77
2022/07/29 13:45:07;;;;;;;0.80;0.80;;;23.50;80.00;;;;;;4980456;28;20460;-78
2022/07/29 13:47:34;;;;;;;0.80;0.80;;;23.80;78.30;;;;;;4979215;28;20210;-78
2022/07/29 13:50:01;;;;;;;0.88;0.88;;;23.80;77.90;;;;;;4980384;28;20465;-77
2022/07/29 13:52:28;;;;;;;0.70;0.70;;;23.50;80.30;;;;;;4980402;28;20257;-77
2022/07/29 13:54:56;;;;;;;1.10;1.00;;;23.50;81.10;;;;;;4979735;28;20576;-77
2022/07/29 13:57:22;;;;;;;0.70;0.70;;;23.60;81.70;;;;;;4979519;28;20485;-77
2022/07/29 13:59:50;;;;;;;0.90;0.73;;;23.70;78.70;;;;;;4979102;28;20442;-77
2022/07/29 14:02:17;;;;;;;0.80;0.80;;;23.80;80.40;;;;;;4978148;28;20932;-78
2022/07/29 14:04:44;;;;;;;0.93;0.93;;;24.20;80.00;;;;;;4977023;28;20964;-78
2022/07/29 14:07:10;;;;;;;0.80;0.70;;;24.30;78.00;;;;;;4978668;28;20210;-78
2022/07/29 14:09:37;;;;;;;0.70;0.70;;;24.60;79.10;;;;;;4977392;28;20461;-78
2022/07/29 14:12:06;;;;;;;1.00;0.90;;;24.90;78.80;;;;;;4977321;28;20478;-78
2022/07/29 14:14:32;;;;;;;0.90;0.80;;;25.10;76.50;;;;;;4977384;28;20605;-78
2022/07/29 14:16:59;;;;;;;0.83;0.80;;;25.10;74.60;;;;;;4977694;28;20277;-78
2022/07/29 14:19:26;;;;;;;0.80;0.80;;;25.20;74.60;;;;;;4977337;28;20477;-78
2022/07/29 14:21:52;;;;;;;0.80;0.80;;;25.20;74.10;;;;;;4977871;28;20469;-78
2022/07/29 14:24:19;;;;;;;0.90;0.90;;;25.20;75.30;;;;;;4977334;28;20442;-78
2022/07/29 14:26:46;;;;;;;0.80;0.80;;;25.30;77.70;;;;;;4977218;28;20458;-78
2022/07/29 14:29:14;;;;;;;0.90;0.90;;;25.30;76.40;;;;;;4977673;28;20242;-78
2022/07/29 14:31:40;;;;;;;0.77;0.77;;;25.30;77.10;;;;;;4976952;28;20227;-78
2022/07/29 14:34:07;;;;;;;0.80;0.70;;;25.40;75.50;;;;;;4977603;28;20489;-78
2022/07/29 14:36:34;;;;;;;0.90;0.90;;;25.20;75.50;;;;;;4976211;28;20528;-76
2022/07/29 14:39:01;;;;;;;0.90;0.90;;;25.10;76.60;;;;;;4975721;28;20446;-75
2022/07/29 14:41:28;;;;;;;0.80;0.80;;;25.20;75.80;;;;;;4975148;28;20477;-77
2022/07/29 14:43:55;;;;;;;0.80;0.80;;;25.30;75.70;;;;;;4975162;28;20488;-77
2022/07/29 14:46:23;;;;;;;0.80;0.80;;;25.30;75.90;;;;;;4976646;28;20493;-75
2022/07/29 14:48:49;;;;;;;0.80;0.80;;;25.50;75.90;;;;;;4975745;28;20457;-77
2022/07/29 14:51:17;;;;;;;0.90;0.70;;;25.60;76.10;;;;;;4974988;28;20600;-76
2022/07/29 14:53:44;;;;;;;0.70;0.67;;;25.70;76.10;;;;;;4974922;28;20478;-77
2022/07/29 14:56:10;;;;;;;0.70;0.67;;;25.80;74.50;;;;;;4974642;28;20454;-77
2022/07/29 14:58:37;;;;;;;0.70;0.70;;;26.00;75.70;;;;;;4974663;28;21001;-77
2022/07/29 15:01:04;;;;;;;0.80;0.80;;;25.90;74.80;;;;;;4974651;28;20490;-76
2022/07/29 15:03:32;;;;;;;0.80;0.70;;;26.00;75.80;;;;;;4975141;28;20187;-76
2022/07/29 15:05:59;;;;;;;0.80;0.80;;;26.20;75.80;;;;;;4974800;28;20462;-76
2022/07/29 15:08:28;;;;;;;1.03;0.90;;;26.20;75.50;;;;;;4974863;28;20265;-76
2022/07/29 15:10:57;;;;;;;1.07;0.70;;;26.10;75.80;;;;;;4974706;28;20465;-76
2022/07/29 15:13:34;;;;;;;0.80;0.80;;;25.80;76.40;;;;;;4974828;28;20489;-76
2022/07/29 15:16:00;;;;;;;0.90;0.90;;;25.40;78.20;;;;;;4974707;28;20453;-76
2022/07/29 15:18:27;;;;;;;0.95;0.70;;;25.10;79.60;;;;;;4974398;28;20804;-76
2022/07/29 15:20:55;;;;;;;0.80;0.80;;;25.00;80.00;;;;;;4974588;28;20237;-76
2022/07/29 15:23:22;;;;;;;0.90;0.90;;;24.90;80.20;;;;;;4974604;28;20206;-76
2022/07/29 15:25:48;;;;;;;0.77;0.77;;;24.90;79.70;;;;;;4974541;28;20501;-76
2022/07/29 15:28:15;;;;;;;0.83;0.77;;;24.70;79.80;;;;;;4974534;28;20454;-76
2022/07/29 15:30:41;;;;;;;0.80;0.80;;;24.50;78.10;;;;;;4974486;28;20450;-76
2022/07/29 15:33:09;;;;;;;0.73;0.73;;;24.50;78.40;;;;;;4975609;28;20457;-76
2022/07/29 15:35:36;;;;;;;0.77;0.73;;;24.40;77.50;;;;;;4974519;28;20434;-78
2022/07/29 15:38:04;;;;;;;1.03;0.90;;;24.20;76.50;;;;;;4973925;28;20941;-77
2022/07/29 15:40:31;;;;;;;0.80;0.80;;;24.10;77.50;;;;;;4974176;28;20505;-76
2022/07/29 15:43:00;;;;;;;1.07;0.90;;;24.00;78.70;;;;;;4975710;28;20446;-77
2022/07/29 15:45:27;;;;;;;0.70;0.70;;;24.10;79.60;;;;;;4978368;28;20453;-77
2022/07/29 15:47:54;;;;;;;0.70;0.70;;;24.20;79.70;;;;;;4978290;28;20449;-77
2022/07/29 15:50:21;;;;;;;0.70;0.70;;;24.20;78.90;;;;;;4978389;28;20442;-76
2022/07/29 15:52:47;;;;;;;0.80;0.70;;;24.40;79.70;;;;;;4978667;28;20481;-76
2022/07/29 15:55:15;;;;;;;0.70;0.70;;;24.40;79.70;;;;;;4978294;28;20481;-75
2022/07/29 15:57:42;;;;;;;0.90;0.73;;;24.50;79.70;;;;;;4978130;28;20454;-76
2022/07/29 16:00:10;;;;;;;0.90;0.73;;;24.40;79.50;;;;;;4977927;28;20948;-76